Time;durP1;ratioP1;P1;durP2;ratioP2;P2;SDS_P1;SDS_P2;PMS_P1;PMS_P2;Temp;Humidity;BMP_temperature;BMP_pressure;BME280_temperature;BME280_humidity;BME280_pressure;Samples;Min_cycle;Max_cycle;Signal;HPM_P1;HPM_P2
2021/11/19 00:01:44;;;;;;;13.88;7.10;;;16.50;89.20;;;;;;4191724;28;20048;-60
2021/11/19 00:04:06;;;;;;;11.90;6.57;;;16.50;89.20;;;;;;4191492;28;20048;-64
2021/11/19 00:06:30;;;;;;;10.95;6.13;;;16.50;89.20;;;;;;4192509;28;20056;-64
2021/11/19 00:08:52;;;;;;;9.30;5.88;;;16.40;89.20;;;;;;4180506;28;20128;-63
2021/11/19 00:11:17;;;;;;;13.00;7.05;;;16.40;89.30;;;;;;4175828;28;20059;-61
2021/11/19 00:13:40;;;;;;;14.57;6.90;;;16.50;89.40;;;;;;4175905;28;20052;-61
2021/11/19 00:16:03;;;;;;;14.52;6.40;;;16.50;89.40;;;;;;4176818;28;20061;-61
2021/11/19 00:18:25;;;;;;;14.43;7.43;;;16.40;89.30;;;;;;4183304;28;20438;-61
2021/11/19 00:20:47;;;;;;;16.48;7.60;;;16.40;90.10;;;;;;4192408;28;20052;-61
2021/11/19 00:23:11;;;;;;;11.65;6.75;;;16.40;89.40;;;;;;4192324;28;20094;-61
2021/11/19 00:25:35;;;;;;;13.32;6.43;;;16.40;89.40;;;;;;4192112;28;20057;-61
2021/11/19 00:27:58;;;;;;;13.50;6.75;;;16.50;89.50;;;;;;4185345;28;20476;-60
2021/11/19 00:30:22;;;;;;;17.67;6.72;;;16.40;89.40;;;;;;4175777;28;20497;-61
2021/11/19 00:32:45;;;;;;;18.15;7.20;;;16.40;89.50;;;;;;4179510;28;20044;-60
2021/11/19 00:35:09;;;;;;;13.60;6.97;;;16.40;89.50;;;;;;4191722;28;20476;-60
2021/11/19 00:37:31;;;;;;;11.00;6.13;;;16.40;89.50;;;;;;4176744;28;20064;-60
2021/11/19 00:39:55;;;;;;;13.23;5.90;;;16.40;90.20;;;;;;4190462;28;20052;-61
2021/11/19 00:42:18;;;;;;;12.55;6.95;;;16.40;89.60;;;;;;4191600;28;20451;-61
2021/11/19 00:44:40;;;;;;;13.32;6.53;;;16.40;90.20;;;;;;4192044;28;20262;-60
2021/11/19 00:47:03;;;;;;;16.52;7.22;;;16.40;89.60;;;;;;4187634;28;20119;-60
2021/11/19 00:49:30;;;;;;;11.70;5.78;;;16.40;89.60;;;;;;4175383;28;20139;-60
2021/11/19 00:51:55;;;;;;;14.25;7.05;;;16.40;89.70;;;;;;4174989;28;20045;-61
2021/11/19 00:54:17;;;;;;;12.48;5.93;;;16.40;89.70;;;;;;4175360;28;20185;-61
2021/11/19 00:56:43;;;;;;;10.95;6.43;;;16.40;89.70;;;;;;4184311;28;20048;-60
2021/11/19 00:59:07;;;;;;;15.20;5.95;;;16.40;89.80;;;;;;4190536;28;20151;-61
2021/11/19 01:01:37;;;;;;;14.93;6.18;;;16.40;89.80;;;;;;4191202;28;20146;-61
2021/11/19 01:04:00;;;;;;;16.48;6.53;;;16.30;90.20;;;;;;4189499;28;20055;-61
2021/11/19 01:06:22;;;;;;;14.60;6.70;;;16.30;89.80;;;;;;4175647;28;20128;-60
2021/11/19 01:08:49;;;;;;;16.10;6.63;;;16.30;89.90;;;;;;4189678;28;20508;-60
2021/11/19 01:11:16;;;;;;;12.85;6.82;;;16.30;90.30;;;;;;4189886;28;20135;-60
2021/11/19 01:13:42;;;;;;;15.52;6.75;;;16.40;90.00;;;;;;4190475;28;20510;-60
2021/11/19 01:16:08;;;;;;;15.60;6.43;;;16.30;90.00;;;;;;4175175;28;20053;-61
2021/11/19 01:18:41;;;;;;;12.55;6.78;;;16.30;90.00;;;;;;4173256;28;20045;-60
2021/11/19 01:21:07;;;;;;;15.73;7.50;;;16.30;90.00;;;;;;4174636;28;20183;-61
2021/11/19 01:23:32;;;;;;;12.88;6.32;;;16.30;90.00;;;;;;4183473;28;20119;-60
2021/11/19 01:25:58;;;;;;;14.77;6.38;;;16.30;90.00;;;;;;4175546;28;20140;-62
2021/11/19 01:28:21;;;;;;;11.68;5.88;;;16.30;90.10;;;;;;4187744;28;20153;-59
2021/11/19 01:30:48;;;;;;;14.18;7.25;;;16.30;90.10;;;;;;4181045;28;20056;-61
2021/11/19 01:33:11;;;;;;;13.75;6.57;;;16.30;90.10;;;;;;4179131;28;20045;-61
2021/11/19 01:35:52;;;;;;;11.82;6.88;;;16.30;90.10;;;;;;4189682;28;20393;-62
2021/11/19 01:38:35;;;;;;;13.73;6.32;;;16.30;90.10;;;;;;4191479;28;20121;-61
2021/11/19 01:41:14;;;;;;;12.63;6.80;;;16.30;90.10;;;;;;4173526;28;20135;-60
2021/11/19 01:43:37;;;;;;;19.42;6.78;;;16.30;90.10;;;;;;4173628;28;20064;-60
2021/11/19 01:46:07;;;;;;;13.27;5.90;;;16.30;90.20;;;;;;4173345;28;20049;-60
2021/11/19 01:48:32;;;;;;;15.07;5.93;;;16.30;90.20;;;;;;4147594;28;20127;-61
2021/11/19 01:50:57;;;;;;;13.10;5.80;;;16.30;90.20;;;;;;4153282;28;20136;-61
2021/11/19 01:53:24;;;;;;;11.32;5.68;;;16.20;90.10;;;;;;4143508;28;20507;-61
2021/11/19 01:55:52;;;;;;;15.00;5.88;;;16.30;90.20;;;;;;4152463;28;20087;-61
2021/11/19 01:58:18;;;;;;;14.45;6.43;;;16.30;90.20;;;;;;4142085;28;20106;-60
2021/11/19 02:00:43;;;;;;;12.18;5.22;;;16.30;90.20;;;;;;4140077;28;20076;-60
2021/11/19 02:03:13;;;;;;;12.70;6.30;;;16.30;90.20;;;;;;4148184;28;20045;-60
2021/11/19 02:05:38;;;;;;;11.13;5.60;;;16.30;90.20;;;;;;4140718;28;20486;-60
2021/11/19 02:08:06;;;;;;;17.55;6.32;;;16.20;90.20;;;;;;4140741;28;20057;-60
2021/11/19 02:10:52;;;;;;;11.18;5.50;;;16.30;90.30;;;;;;4140523;28;20076;-60
2021/11/19 02:13:22;;;;;;;13.68;5.43;;;16.20;90.60;;;;;;4135801;28;20056;-60
2021/11/19 02:15:49;;;;;;;14.18;5.32;;;16.20;90.30;;;;;;4140265;28;20115;-60
2021/11/19 02:18:20;;;;;;;19.73;6.13;;;16.30;90.30;;;;;;4140603;28;20513;-60
2021/11/19 02:20:45;;;;;;;12.67;5.07;;;16.20;90.30;;;;;;4138155;28;20571;-60
2021/11/19 02:23:11;;;;;;;12.15;4.97;;;16.20;90.30;;;;;;4133435;28;20042;-60
2021/11/19 02:25:38;;;;;;;12.32;5.53;;;16.20;90.30;;;;;;4143568;28;20049;-60
2021/11/19 02:28:03;;;;;;;12.35;5.28;;;16.20;90.40;;;;;;4136257;28;20461;-60
2021/11/19 02:30:33;;;;;;;13.35;5.13;;;16.20;90.40;;;;;;4143109;28;20148;-60
2021/11/19 02:33:00;;;;;;;15.35;5.30;;;16.20;90.50;;;;;;4143450;28;20124;-60
2021/11/19 02:35:29;;;;;;;14.02;5.32;;;16.20;90.40;;;;;;4143126;28;20108;-60
2021/11/19 02:37:54;;;;;;;12.00;5.65;;;16.20;90.40;;;;;;4143050;28;20513;-60
2021/11/19 02:40:20;;;;;;;12.07;5.05;;;16.20;90.40;;;;;;4143190;28;20049;-60
2021/11/19 02:42:47;;;;;;;15.40;5.10;;;16.20;90.40;;;;;;4128594;28;20053;-60
2021/11/19 02:45:13;;;;;;;12.02;4.70;;;16.20;90.50;;;;;;4141321;28;20586;-60
2021/11/19 02:47:35;;;;;;;11.15;4.28;;;16.20;90.50;;;;;;4155771;28;20045;-60
2021/11/19 02:49:58;;;;;;;14.90;5.38;;;16.20;90.50;;;;;;4159256;28;20414;-60
2021/11/19 02:52:25;;;;;;;9.65;4.85;;;16.20;90.50;;;;;;4159559;28;20053;-60
2021/11/19 02:54:49;;;;;;;15.38;4.47;;;16.20;90.50;;;;;;4189189;28;20052;-61
2021/11/19 02:57:12;;;;;;;15.88;4.88;;;16.20;90.50;;;;;;4175426;28;20404;-60
2021/11/19 02:59:33;;;;;;;17.75;6.07;;;16.20;90.50;;;;;;4184628;28;20161;-60
2021/11/19 03:01:58;;;;;;;10.98;5.13;;;16.20;90.50;;;;;;4183793;28;20056;-60
2021/11/19 03:04:24;;;;;;;11.07;5.55;;;16.20;90.50;;;;;;4176601;28;20057;-60
2021/11/19 03:06:52;;;;;;;10.13;5.03;;;16.10;90.50;;;;;;4175807;28;20476;-60
2021/11/19 03:09:20;;;;;;;12.57;5.72;;;16.10;90.50;;;;;;4180653;28;20450;-60
2021/11/19 03:11:43;;;;;;;13.55;5.60;;;16.10;90.60;;;;;;4192808;28;20504;-60
2021/11/19 03:14:06;;;;;;;6.68;5.03;;;16.10;90.50;;;;;;4192009;28;20127;-60
2021/11/19 03:16:29;;;;;;;11.07;5.63;;;16.10;90.50;;;;;;4193536;28;20071;-60
2021/11/19 03:18:51;;;;;;;19.55;5.88;;;16.10;90.60;;;;;;4187048;28;20135;-60
2021/11/19 03:21:16;;;;;;;13.73;5.70;;;16.20;90.60;;;;;;4175828;28;20396;-60
2021/11/19 03:23:40;;;;;;;19.08;6.43;;;16.10;90.60;;;;;;4175305;28;20036;-60
2021/11/19 03:26:06;;;;;;;12.98;6.03;;;16.10;90.60;;;;;;4175616;28;20191;-60
2021/11/19 03:28:30;;;;;;;15.43;6.30;;;16.20;90.60;;;;;;4175041;28;20057;-60
2021/11/19 03:30:55;;;;;;;13.52;5.80;;;16.10;90.60;;;;;;4176808;28;20049;-61
2021/11/19 03:33:22;;;;;;;13.82;6.30;;;16.10;90.60;;;;;;4175237;28;20045;-61
2021/11/19 03:35:47;;;;;;;13.73;7.28;;;16.10;90.70;;;;;;4187963;28;20048;-60
2021/11/19 03:38:08;;;;;;;17.88;7.05;;;16.10;91.10;;;;;;4174926;28;20496;-61
2021/11/19 03:40:35;;;;;;;17.85;6.28;;;16.10;90.70;;;;;;4176736;28;20484;-61
2021/11/19 03:43:00;;;;;;;11.82;6.55;;;16.10;90.70;;;;;;4175076;28;20053;-62
2021/11/19 03:45:25;;;;;;;13.63;5.88;;;16.10;90.70;;;;;;4174892;28;20053;-59
2021/11/19 03:47:51;;;;;;;11.95;6.45;;;16.10;90.70;;;;;;4187489;28;20059;-61
2021/11/19 03:50:19;;;;;;;15.65;5.80;;;16.10;90.70;;;;;;4205571;28;20040;-61
2021/11/19 03:52:42;;;;;;;14.70;6.43;;;16.10;90.70;;;;;;4190804;28;20442;-61
2021/11/19 03:55:08;;;;;;;13.20;6.90;;;16.10;90.70;;;;;;4191061;28;20051;-61
2021/11/19 03:57:30;;;;;;;15.93;6.20;;;16.10;90.80;;;;;;4188341;28;20426;-60
2021/11/19 03:59:59;;;;;;;16.38;6.47;;;16.10;90.80;;;;;;4175892;28;20061;-61
2021/11/19 04:02:24;;;;;;;14.00;6.30;;;16.10;90.90;;;;;;4174820;28;20447;-60
2021/11/19 04:04:48;;;;;;;14.23;5.68;;;16.20;90.80;;;;;;4174324;28;20049;-61
2021/11/19 04:07:13;;;;;;;11.90;6.68;;;16.20;90.70;;;;;;4173881;28;20053;-61
2021/11/19 04:09:36;;;;;;;14.25;6.00;;;16.40;90.50;;;;;;4174236;28;20044;-61
2021/11/19 04:12:01;;;;;;;13.25;5.95;;;16.40;90.40;;;;;;4173764;28;20448;-60
2021/11/19 04:14:25;;;;;;;12.38;5.82;;;16.40;90.20;;;;;;4173484;28;20424;-61
2021/11/19 04:16:51;;;;;;;11.98;5.60;;;16.50;90.20;;;;;;4174109;28;20053;-60
2021/11/19 04:19:15;;;;;;;13.25;5.18;;;16.50;90.10;;;;;;4188298;28;20091;-60
2021/11/19 04:21:38;;;;;;;9.90;6.10;;;16.50;90.10;;;;;;4173986;28;20177;-61
2021/11/19 04:24:01;;;;;;;10.20;5.30;;;16.50;90.10;;;;;;4174142;28;20550;-60
2021/11/19 04:26:27;;;;;;;16.65;6.25;;;16.50;90.00;;;;;;4190793;28;20139;-61
2021/11/19 04:28:50;;;;;;;12.43;6.00;;;16.50;90.00;;;;;;4204993;28;20113;-61
2021/11/19 04:31:27;;;;;;;11.10;5.47;;;16.50;90.00;;;;;;4183604;28;20045;-60
2021/11/19 04:33:52;;;;;;;12.00;5.75;;;16.50;90.00;;;;;;4188007;28;20044;-60
2021/11/19 04:36:15;;;;;;;14.68;6.05;;;16.40;90.10;;;;;;4175614;28;20290;-60
2021/11/19 04:38:37;;;;;;;11.35;5.38;;;16.40;90.10;;;;;;4158792;28;20516;-61
2021/11/19 04:41:01;;;;;;;9.02;4.43;;;16.40;90.10;;;;;;4175411;28;20053;-61
2021/11/19 04:43:25;;;;;;;14.25;5.93;;;16.40;90.10;;;;;;4173995;28;20551;-61
2021/11/19 04:45:48;;;;;;;10.57;5.00;;;16.40;90.20;;;;;;4173232;28;20060;-60
2021/11/19 04:48:11;;;;;;;10.65;5.55;;;16.40;90.20;;;;;;4186686;28;20032;-60
2021/11/19 04:50:36;;;;;;;14.90;6.10;;;16.40;90.20;;;;;;4175300;28;20400;-60
2021/11/19 04:52:58;;;;;;;12.70;5.72;;;16.30;90.20;;;;;;4174638;28;20053;-60
2021/11/19 04:55:21;;;;;;;12.48;5.55;;;16.30;90.20;;;;;;4173642;28;20509;-60
2021/11/19 04:57:44;;;;;;;15.35;6.65;;;16.30;90.20;;;;;;4187071;28;20058;-60
2021/11/19 05:00:11;;;;;;;14.57;6.00;;;16.30;90.20;;;;;;4190378;28;20476;-60
2021/11/19 05:02:48;;;;;;;12.37;5.80;;;16.30;90.20;;;;;;4190152;28;20055;-60
2021/11/19 05:05:23;;;;;;;14.95;6.25;;;16.30;90.30;;;;;;4191630;28;20059;-60
2021/11/19 05:07:47;;;;;;;11.52;5.75;;;16.30;90.40;;;;;;4176272;28;20531;-61
2021/11/19 05:10:09;;;;;;;11.57;5.88;;;16.40;90.30;;;;;;4173766;28;20044;-61
2021/11/19 05:12:34;;;;;;;8.60;5.28;;;16.50;90.20;;;;;;4174978;28;20060;-61
2021/11/19 05:14:56;;;;;;;13.05;6.82;;;16.50;90.00;;;;;;4175129;28;20068;-60
2021/11/19 05:17:22;;;;;;;16.20;6.22;;;16.50;90.00;;;;;;4173634;28;20488;-61
2021/11/19 05:19:47;;;;;;;14.05;6.00;;;16.60;89.80;;;;;;4173526;28;20045;-61
2021/11/19 05:22:10;;;;;;;12.70;6.45;;;16.60;89.70;;;;;;4172608;28;20049;-61
2021/11/19 05:24:34;;;;;;;16.73;7.00;;;16.60;89.60;;;;;;4186542;28;20044;-62
2021/11/19 05:26:56;;;;;;;15.27;7.43;;;16.60;89.60;;;;;;4190069;28;20504;-61
2021/11/19 05:29:20;;;;;;;13.90;6.75;;;16.60;89.60;;;;;;4190392;28;20045;-62
2021/11/19 05:31:44;;;;;;;17.90;6.45;;;16.60;89.60;;;;;;4189709;28;20135;-62
2021/11/19 05:34:08;;;;;;;15.20;6.65;;;16.60;90.20;;;;;;4187540;28;20406;-61
2021/11/19 05:36:32;;;;;;;15.23;6.85;;;16.60;89.80;;;;;;4174631;28;20579;-61
2021/11/19 05:38:54;;;;;;;15.40;6.63;;;16.50;89.90;;;;;;4177134;28;20045;-61
2021/11/19 05:41:20;;;;;;;14.75;6.63;;;16.50;89.90;;;;;;4187711;28;20072;-61
2021/11/19 05:43:46;;;;;;;13.40;7.03;;;16.50;90.00;;;;;;4187590;28;20056;-61
2021/11/19 05:46:23;;;;;;;13.60;6.70;;;16.50;90.00;;;;;;4173130;28;20090;-61
2021/11/19 05:48:49;;;;;;;14.82;6.95;;;16.40;90.00;;;;;;4190316;28;20113;-58
2021/11/19 05:51:13;;;;;;;19.42;6.55;;;16.40;90.10;;;;;;4186335;28;20044;-60
2021/11/19 05:53:35;;;;;;;13.35;6.97;;;16.40;90.10;;;;;;4173289;28;20053;-60
2021/11/19 05:55:57;;;;;;;12.93;6.75;;;16.40;90.20;;;;;;4173367;28;20045;-60
2021/11/19 05:58:22;;;;;;;13.75;6.93;;;16.40;90.20;;;;;;4175401;28;20049;-61
2021/11/19 06:00:46;;;;;;;13.73;6.95;;;16.40;90.20;;;;;;4177064;28;20079;-61
2021/11/19 06:03:20;;;;;;;13.30;7.22;;;16.40;90.20;;;;;;4175803;28;20511;-60
2021/11/19 06:06:13;;;;;;;13.10;6.80;;;16.30;90.20;;;;;;4176200;28;20059;-60
2021/11/19 06:08:54;;;;;;;;;;;16.30;90.30;;;;;;4178323;28;20509;-60
2021/11/19 06:11:21;;;;;;;14.93;5.82;;;16.30;90.30;;;;;;4177648;28;20015;-60
2021/11/19 06:13:48;;;;;;;14.98;6.78;;;16.20;90.40;;;;;;4176526;28;20076;-61
2021/11/19 06:16:21;;;;;;;13.70;6.80;;;16.30;90.40;;;;;;4177320;28;20045;-60
2021/11/19 06:18:49;;;;;;;15.63;6.82;;;16.20;90.40;;;;;;4191102;28;20067;-60
2021/11/19 06:21:17;;;;;;;13.20;6.55;;;16.20;90.50;;;;;;4192021;28;20051;-60
2021/11/19 06:23:41;;;;;;;10.32;6.90;;;16.20;90.40;;;;;;4192586;28;20044;-60
2021/11/19 06:26:06;;;;;;;15.70;6.35;;;16.20;90.50;;;;;;4191998;28;20052;-60
2021/11/19 06:28:35;;;;;;;14.52;6.68;;;16.20;90.50;;;;;;4188992;28;20411;-61
2021/11/19 06:30:59;;;;;;;14.38;6.80;;;16.20;90.60;;;;;;4176182;28;20049;-60
2021/11/19 06:33:22;;;;;;;11.05;6.00;;;16.20;90.60;;;;;;4175555;28;20435;-60
2021/11/19 06:35:44;;;;;;;12.50;6.25;;;16.30;90.80;;;;;;4176039;28;20127;-61
2021/11/19 06:38:06;;;;;;;14.85;6.72;;;16.40;90.20;;;;;;4184987;28;20068;-61
2021/11/19 06:40:35;;;;;;;12.90;6.53;;;16.50;90.50;;;;;;4181149;28;20053;-60
2021/11/19 06:43:17;;;;;;;15.00;6.57;;;16.50;90.00;;;;;;4177047;28;20404;-60
2021/11/19 06:45:48;;;;;;;10.60;5.70;;;16.60;89.80;;;;;;4176706;28;20048;-60
2021/11/19 06:48:22;;;;;;;16.35;5.93;;;16.50;89.70;;;;;;4181022;28;20113;-60
2021/11/19 06:50:59;;;;;;;11.32;5.53;;;16.60;89.70;;;;;;4191885;28;20052;-61
2021/11/19 06:53:35;;;;;;;17.90;6.28;;;16.50;89.60;;;;;;4191759;28;20048;-60
2021/11/19 06:56:26;;;;;;;14.50;6.47;;;16.50;89.80;;;;;;4185587;28;20522;-60
2021/11/19 06:59:04;;;;;;;10.32;5.72;;;16.50;89.90;;;;;;4168488;28;20480;-61
2021/11/19 07:01:28;;;;;;;19.48;6.43;;;16.50;90.00;;;;;;4184612;28;20488;-61
2021/11/19 07:03:52;;;;;;;7.97;5.22;;;16.60;90.10;;;;;;4191573;28;20514;-61
2021/11/19 07:06:15;;;;;;;16.30;5.75;;;16.60;90.20;;;;;;4178226;28;20041;-61
2021/11/19 07:08:38;;;;;;;16.45;6.85;;;16.50;90.10;;;;;;4163531;28;20056;-61
2021/11/19 07:11:04;;;;;;;12.15;5.53;;;16.50;90.10;;;;;;4195311;28;20484;-61
2021/11/19 07:13:27;;;;;;;12.45;5.75;;;16.50;90.10;;;;;;4178732;28;20057;-61
2021/11/19 07:15:49;;;;;;;19.30;7.20;;;16.50;90.60;;;;;;4193270;28;20048;-61
2021/11/19 07:18:12;;;;;;;11.52;5.82;;;16.50;90.20;;;;;;4179822;28;20045;-61
2021/11/19 07:20:38;;;;;;;16.02;5.82;;;16.40;90.20;;;;;;4175940;28;20048;-61
2021/11/19 07:23:01;;;;;;;21.33;6.90;;;16.50;90.20;;;;;;4180748;28;20415;-61
2021/11/19 07:25:25;;;;;;;10.18;5.93;;;16.40;90.30;;;;;;4175567;28;20476;-66
2021/11/19 07:27:53;;;;;;;9.45;5.22;;;16.40;90.40;;;;;;4175214;28;20174;-63
2021/11/19 07:30:18;;;;;;;13.15;6.18;;;16.30;90.40;;;;;;4176149;28;20567;-66
2021/11/19 07:33:06;;;;;;;11.70;5.65;;;16.30;90.40;;;;;;4174660;28;20531;-65
2021/11/19 07:35:49;;;;;;;10.07;6.20;;;16.30;90.50;;;;;;4177449;28;20049;-67
2021/11/19 07:38:30;;;;;;;11.32;4.97;;;16.30;90.50;;;;;;4176454;28;20478;-68
2021/11/19 07:41:11;;;;;;;;;;;16.30;90.60;;;;;;4176672;28;20056;-70
2021/11/19 07:43:57;;;;;;;16.75;5.80;;;16.20;90.60;;;;;;4174596;28;19924;-63
2021/11/19 07:46:39;;;;;;;15.70;5.90;;;16.30;90.70;;;;;;4176182;28;20052;-62
2021/11/19 07:49:03;;;;;;;12.95;5.43;;;16.20;90.70;;;;;;4174603;28;20072;-62
2021/11/19 07:51:29;;;;;;;9.25;5.05;;;16.20;90.70;;;;;;4182550;28;20384;-62
2021/11/19 07:53:52;;;;;;;10.88;5.22;;;16.20;90.70;;;;;;4191102;28;20055;-62
2021/11/19 07:56:16;;;;;;;12.07;4.95;;;16.20;90.70;;;;;;4191528;28;20061;-62
2021/11/19 07:58:40;;;;;;;11.90;5.45;;;16.20;90.80;;;;;;4190720;28;20055;-62
2021/11/19 08:01:02;;;;;;;18.20;5.50;;;16.20;90.90;;;;;;4190356;28;20121;-62
2021/11/19 08:03:25;;;;;;;14.15;5.28;;;16.20;90.90;;;;;;4179753;28;20048;-63
2021/11/19 08:05:49;;;;;;;14.50;5.05;;;16.20;90.90;;;;;;4192737;28;20122;-63
2021/11/19 08:08:22;;;;;;;12.60;5.28;;;16.20;91.00;;;;;;4187493;28;20048;-62
2021/11/19 08:11:13;;;;;;;9.30;4.93;;;16.10;91.00;;;;;;4188190;28;20048;-62
2021/11/19 08:13:38;;;;;;;13.95;5.10;;;16.20;91.00;;;;;;4188958;28;20076;-62
2021/11/19 08:16:01;;;;;;;13.23;4.20;;;16.10;91.00;;;;;;4188579;28;20124;-62
2021/11/19 08:18:43;;;;;;;8.35;4.47;;;16.10;91.40;;;;;;4181068;28;20044;-62
2021/11/19 08:21:07;;;;;;;11.55;4.35;;;16.10;91.00;;;;;;4190727;28;20052;-63
2021/11/19 08:23:34;;;;;;;12.60;4.53;;;16.10;91.00;;;;;;4185591;28;20121;-62
2021/11/19 08:25:57;;;;;;;12.27;4.07;;;16.10;91.10;;;;;;4180739;28;20076;-63
2021/11/19 08:28:26;;;;;;;13.50;3.97;;;16.10;91.10;;;;;;4176145;28;20454;-63
2021/11/19 08:30:50;;;;;;;12.90;4.60;;;16.10;91.10;;;;;;4186769;28;20051;-62
2021/11/19 08:33:13;;;;;;;13.20;3.45;;;16.10;91.10;;;;;;4192179;28;20147;-62
2021/11/19 08:35:39;;;;;;;11.82;4.00;;;16.10;91.10;;;;;;4191382;28;20119;-63
2021/11/19 08:38:02;;;;;;;12.27;3.75;;;16.00;91.10;;;;;;4190770;28;20539;-65
2021/11/19 08:40:27;;;;;;;8.43;3.15;;;16.00;91.10;;;;;;4175709;28;20386;-62
2021/11/19 08:42:50;;;;;;;11.38;3.67;;;16.00;91.10;;;;;;4176128;28;20385;-62
2021/11/19 08:45:17;;;;;;;16.02;4.07;;;16.00;91.20;;;;;;4189743;28;20454;-62
2021/11/19 08:47:43;;;;;;;15.57;3.40;;;16.00;91.20;;;;;;4192029;28;20052;-62
2021/11/19 08:50:09;;;;;;;11.73;3.35;;;16.00;91.20;;;;;;4191787;28;20056;-62
2021/11/19 08:52:31;;;;;;;11.90;3.20;;;16.00;91.20;;;;;;4192684;28;20381;-62
2021/11/19 08:54:53;;;;;;;12.32;3.25;;;16.00;91.20;;;;;;4192337;28;20135;-63
2021/11/19 08:57:20;;;;;;;10.95;4.45;;;16.00;91.20;;;;;;4181151;28;20064;-63
2021/11/19 08:59:46;;;;;;;9.90;3.03;;;16.00;91.20;;;;;;4189382;28;20048;-62
2021/11/19 09:02:11;;;;;;;6.93;3.00;;;16.00;91.30;;;;;;4185569;28;20045;-63
2021/11/19 09:04:53;;;;;;;13.82;3.50;;;16.00;91.30;;;;;;4187648;28;20396;-63
2021/11/19 09:07:16;;;;;;;11.68;3.38;;;16.00;91.30;;;;;;4191996;28;20484;-63
2021/11/19 09:09:40;;;;;;;8.82;2.92;;;16.00;91.30;;;;;;4192279;28;20053;-63
2021/11/19 09:12:02;;;;;;;11.95;2.75;;;16.00;91.30;;;;;;4175546;28;20122;-61
2021/11/19 09:14:26;;;;;;;9.40;3.20;;;16.00;91.30;;;;;;4184242;28;20052;-60
2021/11/19 09:17:19;;;;;;;12.95;3.22;;;16.00;91.30;;;;;;4173451;28;20124;-61
2021/11/19 09:19:49;;;;;;;10.23;2.78;;;16.00;91.30;;;;;;4177316;28;20059;-61
2021/11/19 09:22:29;;;;;;;15.37;4.03;;;16.00;91.30;;;;;;4175954;28;20048;-61
2021/11/19 09:24:51;;;;;;;9.35;2.70;;;16.00;91.30;;;;;;4174974;28;20275;-60
2021/11/19 09:27:17;;;;;;;12.60;3.10;;;16.00;91.30;;;;;;4175110;28;20056;-61
2021/11/19 09:29:42;;;;;;;11.45;3.03;;;16.00;91.40;;;;;;4182558;28;20057;-67
2021/11/19 09:32:06;;;;;;;12.25;3.00;;;16.00;91.30;;;;;;4174807;28;20072;-62
2021/11/19 09:34:31;;;;;;;11.73;2.83;;;16.00;91.30;;;;;;4178481;28;20484;-64
2021/11/19 09:36:53;;;;;;;13.70;3.33;;;16.00;91.40;;;;;;4177619;28;20408;-63
2021/11/19 09:39:17;;;;;;;11.52;3.10;;;16.00;91.40;;;;;;4190747;28;20052;-61
2021/11/19 09:41:56;;;;;;;13.10;2.78;;;16.00;91.30;;;;;;4194228;28;20041;-63
2021/11/19 09:44:51;;;;;;;14.60;2.85;;;16.00;91.30;;;;;;4194655;28;20048;-61
2021/11/19 09:47:29;;;;;;;9.85;2.92;;;16.00;91.30;;;;;;4189602;28;20044;-60
2021/11/19 09:50:36;;;;;;;7.68;2.92;;;16.00;91.30;;;;;;4177809;28;20136;-60
2021/11/19 09:53:50;;;;;;;13.15;2.92;;;16.00;91.30;;;;;;4161127;28;20061;-60
2021/11/19 09:56:29;;;;;;;16.33;3.15;;;16.00;91.30;;;;;;4176383;28;20397;-60
2021/11/19 09:58:58;;;;;;;11.18;3.13;;;16.00;91.40;;;;;;4185607;28;20052;-60
2021/11/19 10:01:43;;;;;;;14.13;4.05;;;16.00;91.40;;;;;;4192931;28;20427;-60
2021/11/19 10:04:38;;;;;;;11.68;3.25;;;16.00;91.40;;;;;;4194075;28;20048;-60
2021/11/19 10:07:07;;;;;;;9.30;2.83;;;16.00;91.40;;;;;;4190437;28;20562;-59
2021/11/19 10:09:42;;;;;;;12.27;3.10;;;16.00;91.40;;;;;;4178385;28;20381;-59
2021/11/19 10:12:09;;;;;;;13.68;3.13;;;15.90;91.30;;;;;;4177667;28;20135;-59
2021/11/19 10:14:43;;;;;;;14.88;3.22;;;16.00;91.80;;;;;;4177755;28;20049;-59
2021/11/19 10:17:42;;;;;;;7.53;3.35;;;16.00;91.40;;;;;;4187076;28;20476;-59
2021/11/19 10:20:10;;;;;;;12.48;2.45;;;16.00;91.40;;;;;;4182925;28;20044;-59
2021/11/19 10:22:35;;;;;;;13.80;3.00;;;16.00;91.50;;;;;;4194339;28;20441;-59
2021/11/19 10:25:08;;;;;;;13.20;2.75;;;16.00;91.50;;;;;;4194136;28;20056;-59
2021/11/19 10:27:34;;;;;;;9.75;3.15;;;16.00;91.50;;;;;;4192067;28;20056;-59
2021/11/19 10:30:01;;;;;;;14.60;3.03;;;16.00;91.50;;;;;;4193852;28;20086;-59
2021/11/19 10:32:28;;;;;;;9.05;2.78;;;16.00;91.40;;;;;;4192852;28;20485;-59
2021/11/19 10:34:59;;;;;;;9.00;2.65;;;16.00;91.50;;;;;;4194175;28;20032;-59
2021/11/19 10:37:44;;;;;;;14.48;2.60;;;15.90;91.50;;;;;;4182061;28;20049;-59
2021/11/19 10:40:35;;;;;;;8.60;3.10;;;16.00;91.50;;;;;;4176618;28;20052;-59
2021/11/19 10:43:37;;;;;;;12.10;2.42;;;16.00;91.50;;;;;;4176741;28;20047;-59
2021/11/19 10:46:31;;;;;;;11.13;3.70;;;16.00;91.50;;;;;;4154983;28;20496;-59
2021/11/19 10:49:19;;;;;;;9.68;2.92;;;15.90;91.50;;;;;;4182603;28;20044;-59
2021/11/19 10:52:05;;;;;;;10.57;2.67;;;16.00;91.50;;;;;;4191075;28;20052;-60
2021/11/19 10:55:13;;;;;;;13.77;2.97;;;16.00;91.50;;;;;;4177003;28;20055;-60
2021/11/19 10:58:16;;;;;;;6.22;2.47;;;16.00;91.50;;;;;;4189608;28;20439;-61
2021/11/19 11:00:53;;;;;;;9.40;2.55;;;16.00;91.50;;;;;;4179611;28;20253;-61
2021/11/19 11:03:18;;;;;;;12.02;2.67;;;16.00;91.50;;;;;;4177252;28;20510;-60
2021/11/19 11:05:43;;;;;;;8.27;2.70;;;15.90;91.50;;;;;;4178357;28;20136;-61
2021/11/19 11:08:15;;;;;;;8.68;2.22;;;16.00;91.50;;;;;;4177116;28;20061;-59
2021/11/19 11:10:45;;;;;;;5.43;2.53;;;16.00;91.50;;;;;;4177130;28;20041;-60
2021/11/19 11:13:27;;;;;;;9.77;2.47;;;15.90;91.50;;;;;;4192806;28;20044;-61
2021/11/19 11:15:53;;;;;;;8.43;2.38;;;15.90;91.50;;;;;;4176792;28;20136;-61
2021/11/19 11:18:21;;;;;;;12.35;2.78;;;16.00;91.50;;;;;;4177227;28;20045;-61
2021/11/19 11:20:56;;;;;;;13.48;3.28;;;15.90;91.50;;;;;;4187235;28;20438;-60
2021/11/19 11:23:26;;;;;;;8.50;1.90;;;16.00;91.50;;;;;;4177622;28;20037;-62
2021/11/19 11:25:59;;;;;;;6.95;2.05;;;16.00;91.50;;;;;;4176199;28;20400;-62
2021/11/19 11:28:23;;;;;;;11.70;2.15;;;16.00;91.50;;;;;;4176526;28;20476;-63
2021/11/19 11:30:58;;;;;;;7.30;2.55;;;15.90;91.40;;;;;;4169476;28;20053;-64
2021/11/19 11:33:25;;;;;;;13.52;2.13;;;16.00;91.40;;;;;;4176527;28;20060;-61
2021/11/19 11:35:50;;;;;;;11.77;2.80;;;15.90;91.40;;;;;;4176235;28;20068;-60
2021/11/19 11:38:32;;;;;;;13.38;2.08;;;16.00;91.50;;;;;;4176848;28;20068;-60
2021/11/19 11:41:16;;;;;;;9.25;2.60;;;16.00;91.50;;;;;;4167701;28;20053;-60
2021/11/19 11:43:40;;;;;;;8.70;2.95;;;16.00;91.50;;;;;;4192306;28;20484;-59
2021/11/19 11:46:28;;;;;;;6.47;2.25;;;15.90;91.50;;;;;;4192775;28;20058;-58
2021/11/19 11:49:15;;;;;;;8.82;2.40;;;16.00;91.40;;;;;;4192373;28;20041;-60
2021/11/19 11:51:52;;;;;;;9.98;2.78;;;16.00;91.40;;;;;;4144307;28;20049;-60
2021/11/19 11:54:23;;;;;;;15.80;3.20;;;16.00;91.40;;;;;;4176388;28;20053;-60
2021/11/19 11:56:50;;;;;;;10.65;2.40;;;16.00;91.40;;;;;;4176053;28;20048;-61
2021/11/19 11:59:20;;;;;;;11.48;2.30;;;16.00;91.50;;;;;;4178238;28;20122;-60
2021/11/19 12:01:50;;;;;;;8.23;2.20;;;16.00;91.50;;;;;;4192196;28;20076;-61
2021/11/19 12:04:19;;;;;;;8.77;2.53;;;16.00;91.60;;;;;;4192855;28;20068;-60
2021/11/19 12:06:47;;;;;;;10.02;2.30;;;16.00;91.60;;;;;;4176908;28;20059;-60
2021/11/19 12:09:30;;;;;;;14.38;2.55;;;16.10;91.60;;;;;;4191421;28;20076;-59
2021/11/19 12:12:23;;;;;;;8.20;2.40;;;16.10;91.60;;;;;;4176051;28;20052;-59
2021/11/19 12:15:03;;;;;;;19.98;2.72;;;16.10;91.60;;;;;;4166353;28;20139;-59
2021/11/19 12:17:45;;;;;;;8.02;2.25;;;16.10;91.60;;;;;;4175738;28;20048;-59
2021/11/19 12:20:21;;;;;;;6.90;2.03;;;16.10;91.50;;;;;;4175744;28;20053;-60
2021/11/19 12:22:49;;;;;;;8.35;2.08;;;16.10;91.50;;;;;;4172821;28;20131;-59
2021/11/19 12:25:54;;;;;;;10.93;2.53;;;16.10;91.50;;;;;;4190995;28;20502;-59
2021/11/19 12:28:20;;;;;;;8.05;2.40;;;16.10;91.80;;;;;;4164302;28;20041;-59
2021/11/19 12:30:47;;;;;;;11.00;1.95;;;16.10;91.50;;;;;;4176972;28;20041;-59
2021/11/19 12:33:17;;;;;;;9.48;2.13;;;16.10;91.50;;;;;;4175743;28;20053;-59
2021/11/19 12:35:42;;;;;;;7.88;2.25;;;16.10;91.50;;;;;;4175825;28;20048;-59
2021/11/19 12:38:14;;;;;;;12.77;2.45;;;16.10;91.50;;;;;;4183246;28;20431;-59
2021/11/19 12:40:46;;;;;;;7.07;1.95;;;16.10;91.60;;;;;;4192073;28;20044;-60
2021/11/19 12:43:24;;;;;;;10.00;2.30;;;16.10;91.70;;;;;;4184580;28;20501;-60
2021/11/19 12:45:52;;;;;;;12.25;2.45;;;16.20;91.70;;;;;;4187291;28;20091;-60
2021/11/19 12:48:54;;;;;;;16.48;2.45;;;16.10;91.60;;;;;;4175178;28;20052;-59